sensor_id;sensor_type;location;lat;lon;timestamp;P1;durP1;ratioP1;P2;durP2;ratioP2
37205;SDS011;23099;42.636;23.198;2023-03-23T00:01:08;29.55;;;13.57;;
37205;SDS011;23099;42.636;23.198;2023-03-23T00:03:38;25.13;;;11.55;;
37205;SDS011;23099;42.636;23.198;2023-03-23T00:06:05;27.42;;;11.65;;
37205;SDS011;23099;42.636;23.198;2023-03-23T00:08:32;22.05;;;11.32;;
37205;SDS011;23099;42.636;23.198;2023-03-23T00:11:02;20.42;;;10.85;;
37205;SDS011;23099;42.636;23.198;2023-03-23T00:13:31;23.40;;;11.90;;
37205;SDS011;23099;42.636;23.198;2023-03-23T00:15:58;21.95;;;11.43;;
37205;SDS011;23099;42.636;23.198;2023-03-23T00:18:25;26.25;;;14.02;;
37205;SDS011;23099;42.636;23.198;2023-03-23T00:20:52;29.48;;;14.88;;
37205;SDS011;23099;42.636;23.198;2023-03-23T00:23:20;21.85;;;10.63;;
37205;SDS011;23099;42.636;23.198;2023-03-23T00:25:49;25.70;;;11.18;;
37205;SDS011;23099;42.636;23.198;2023-03-23T00:28:21;25.15;;;12.13;;
37205;SDS011;23099;42.636;23.198;2023-03-23T00:30:55;27.83;;;13.32;;
37205;SDS011;23099;42.636;23.198;2023-03-23T00:33:23;25.15;;;12.63;;
37205;SDS011;23099;42.636;23.198;2023-03-23T00:35:51;25.10;;;13.13;;
37205;SDS011;23099;42.636;23.198;2023-03-23T00:38:19;32.17;;;15.55;;
37205;SDS011;23099;42.636;23.198;2023-03-23T00:40:46;30.20;;;15.02;;
37205;SDS011;23099;42.636;23.198;2023-03-23T00:43:13;31.75;;;16.70;;
37205;SDS011;23099;42.636;23.198;2023-03-23T00:45:41;33.50;;;15.80;;
37205;SDS011;23099;42.636;23.198;2023-03-23T00:48:11;35.45;;;16.55;;
37205;SDS011;23099;42.636;23.198;2023-03-23T00:50:38;34.05;;;16.75;;
37205;SDS011;23099;42.636;23.198;2023-03-23T00:53:05;30.25;;;16.10;;
37205;SDS011;23099;42.636;23.198;2023-03-23T00:55:31;29.75;;;15.63;;
37205;SDS011;23099;42.636;23.198;2023-03-23T00:57:58;42.80;;;18.65;;
37205;SDS011;23099;42.636;23.198;2023-03-23T01:00:25;33.13;;;16.02;;
37205;SDS011;23099;42.636;23.198;2023-03-23T01:02:52;22.20;;;11.57;;
37205;SDS011;23099;42.636;23.198;2023-03-23T01:05:21;34.75;;;16.50;;
37205;SDS011;23099;42.636;23.198;2023-03-23T01:07:47;35.78;;;14.45;;
37205;SDS011;23099;42.636;23.198;2023-03-23T01:10:14;34.40;;;16.20;;
37205;SDS011;23099;42.636;23.198;2023-03-23T01:12:43;41.70;;;18.15;;
37205;SDS011;23099;42.636;23.198;2023-03-23T01:15:13;44.28;;;18.88;;
37205;SDS011;23099;42.636;23.198;2023-03-23T01:17:41;37.38;;;16.05;;
37205;SDS011;23099;42.636;23.198;2023-03-23T01:20:09;32.78;;;15.23;;
37205;SDS011;23099;42.636;23.198;2023-03-23T01:22:38;22.60;;;12.15;;
37205;SDS011;23099;42.636;23.198;2023-03-23T01:25:06;53.25;;;22.73;;
37205;SDS011;23099;42.636;23.198;2023-03-23T01:27:33;45.45;;;20.10;;
37205;SDS011;23099;42.636;23.198;2023-03-23T01:30:00;27.73;;;12.90;;
37205;SDS011;23099;42.636;23.198;2023-03-23T01:32:27;21.48;;;10.57;;
37205;SDS011;23099;42.636;23.198;2023-03-23T01:34:54;27.30;;;12.77;;
37205;SDS011;23099;42.636;23.198;2023-03-23T01:37:21;17.08;;;8.40;;
37205;SDS011;23099;42.636;23.198;2023-03-23T01:39:52;31.35;;;13.35;;
37205;SDS011;23099;42.636;23.198;2023-03-23T01:42:21;26.92;;;10.05;;
37205;SDS011;23099;42.636;23.198;2023-03-23T01:47:54;34.88;;;14.63;;
37205;SDS011;23099;42.636;23.198;2023-03-23T01:50:25;31.33;;;13.07;;
37205;SDS011;23099;42.636;23.198;2023-03-23T01:52:54;32.13;;;12.48;;
37205;SDS011;23099;42.636;23.198;2023-03-23T01:55:25;19.63;;;10.15;;
37205;SDS011;23099;42.636;23.198;2023-03-23T01:57:53;16.95;;;8.27;;
37205;SDS011;23099;42.636;23.198;2023-03-23T02:00:22;16.83;;;8.88;;
37205;SDS011;23099;42.636;23.198;2023-03-23T02:02:50;17.77;;;8.98;;
37205;SDS011;23099;42.636;23.198;2023-03-23T02:07:48;22.50;;;11.27;;
37205;SDS011;23099;42.636;23.198;2023-03-23T02:10:16;26.02;;;12.88;;
37205;SDS011;23099;42.636;23.198;2023-03-23T02:12:44;27.00;;;13.88;;
37205;SDS011;23099;42.636;23.198;2023-03-23T02:15:11;24.08;;;12.73;;
37205;SDS011;23099;42.636;23.198;2023-03-23T02:17:38;25.50;;;13.38;;
37205;SDS011;23099;42.636;23.198;2023-03-23T02:20:17;27.08;;;14.27;;
37205;SDS011;23099;42.636;23.198;2023-03-23T02:23:03;30.27;;;15.80;;
37205;SDS011;23099;42.636;23.198;2023-03-23T02:26:03;26.55;;;14.32;;
37205;SDS011;23099;42.636;23.198;2023-03-23T02:35:00;28.80;;;14.45;;
37205;SDS011;23099;42.636;23.198;2023-03-23T02:37:36;28.73;;;15.40;;
37205;SDS011;23099;42.636;23.198;2023-03-23T02:40:07;32.00;;;16.48;;
37205;SDS011;23099;42.636;23.198;2023-03-23T02:42:39;33.75;;;17.92;;
37205;SDS011;23099;42.636;23.198;2023-03-23T02:45:10;35.22;;;18.08;;
37205;SDS011;23099;42.636;23.198;2023-03-23T02:47:38;33.72;;;18.23;;
37205;SDS011;23099;42.636;23.198;2023-03-23T02:50:08;33.40;;;18.35;;
37205;SDS011;23099;42.636;23.198;2023-03-23T02:52:40;33.40;;;16.65;;
37205;SDS011;23099;42.636;23.198;2023-03-23T02:55:09;31.92;;;17.65;;
37205;SDS011;23099;42.636;23.198;2023-03-23T02:57:39;36.88;;;18.75;;
37205;SDS011;23099;42.636;23.198;2023-03-23T03:00:06;37.17;;;18.80;;
37205;SDS011;23099;42.636;23.198;2023-03-23T03:02:38;33.20;;;18.13;;
37205;SDS011;23099;42.636;23.198;2023-03-23T03:05:11;30.50;;;17.23;;
37205;SDS011;23099;42.636;23.198;2023-03-23T03:07:50;32.00;;;16.70;;
37205;SDS011;23099;42.636;23.198;2023-03-23T03:10:25;29.88;;;16.50;;
37205;SDS011;23099;42.636;23.198;2023-03-23T03:12:59;28.52;;;14.75;;
37205;SDS011;23099;42.636;23.198;2023-03-23T03:15:36;28.70;;;14.27;;
37205;SDS011;23099;42.636;23.198;2023-03-23T03:18:09;24.33;;;13.35;;
37205;SDS011;23099;42.636;23.198;2023-03-23T03:20:43;23.27;;;12.27;;
37205;SDS011;23099;42.636;23.198;2023-03-23T03:23:13;28.20;;;14.40;;
37205;SDS011;23099;42.636;23.198;2023-03-23T03:28:12;24.70;;;13.07;;
37205;SDS011;23099;42.636;23.198;2023-03-23T03:30:41;28.65;;;13.77;;
37205;SDS011;23099;42.636;23.198;2023-03-23T03:33:11;28.88;;;14.35;;
37205;SDS011;23099;42.636;23.198;2023-03-23T03:35:39;30.92;;;15.30;;
37205;SDS011;23099;42.636;23.198;2023-03-23T03:38:09;32.63;;;17.42;;
37205;SDS011;23099;42.636;23.198;2023-03-23T03:40:37;29.67;;;17.20;;
37205;SDS011;23099;42.636;23.198;2023-03-23T03:43:04;86.95;;;77.70;;
37205;SDS011;23099;42.636;23.198;2023-03-23T03:45:32;27.37;;;14.57;;
37205;SDS011;23099;42.636;23.198;2023-03-23T03:47:59;27.65;;;14.88;;
37205;SDS011;23099;42.636;23.198;2023-03-23T03:50:26;67.65;;;54.78;;
37205;SDS011;23099;42.636;23.198;2023-03-23T03:52:54;475.00;;;303.27;;
37205;SDS011;23099;42.636;23.198;2023-03-23T03:57:48;222.10;;;116.50;;
37205;SDS011;23099;42.636;23.198;2023-03-23T04:00:15;106.00;;;54.35;;
37205;SDS011;23099;42.636;23.198;2023-03-23T04:02:43;65.22;;;31.10;;
37205;SDS011;23099;42.636;23.198;2023-03-23T04:05:15;42.47;;;22.60;;
37205;SDS011;23099;42.636;23.198;2023-03-23T04:07:43;51.35;;;20.73;;
37205;SDS011;23099;42.636;23.198;2023-03-23T04:10:15;91.72;;;35.78;;
37205;SDS011;23099;42.636;23.198;2023-03-23T04:12:44;48.50;;;25.08;;
37205;SDS011;23099;42.636;23.198;2023-03-23T04:15:11;39.33;;;20.00;;
37205;SDS011;23099;42.636;23.198;2023-03-23T04:17:38;40.72;;;22.25;;
37205;SDS011;23099;42.636;23.198;2023-03-23T04:20:06;55.75;;;28.08;;
37205;SDS011;23099;42.636;23.198;2023-03-23T04:22:39;51.50;;;25.67;;
37205;SDS011;23099;42.636;23.198;2023-03-23T04:25:09;47.97;;;23.75;;
37205;SDS011;23099;42.636;23.198;2023-03-23T04:27:38;43.72;;;23.63;;
37205;SDS011;23099;42.636;23.198;2023-03-23T04:30:08;45.20;;;21.75;;
37205;SDS011;23099;42.636;23.198;2023-03-23T04:32:37;43.13;;;22.63;;
37205;SDS011;23099;42.636;23.198;2023-03-23T04:35:07;43.08;;;21.42;;
37205;SDS011;23099;42.636;23.198;2023-03-23T04:37:34;39.00;;;22.00;;
37205;SDS011;23099;42.636;23.198;2023-03-23T04:40:01;42.38;;;23.10;;
37205;SDS011;23099;42.636;23.198;2023-03-23T04:42:33;32.80;;;21.38;;
37205;SDS011;23099;42.636;23.198;2023-03-23T04:45:04;22.35;;;11.07;;
37205;SDS011;23099;42.636;23.198;2023-03-23T04:47:32;35.30;;;17.15;;
37205;SDS011;23099;42.636;23.198;2023-03-23T04:50:05;33.85;;;20.60;;
37205;SDS011;23099;42.636;23.198;2023-03-23T04:52:34;50.15;;;24.17;;
37205;SDS011;23099;42.636;23.198;2023-03-23T04:55:03;39.30;;;20.67;;
37205;SDS011;23099;42.636;23.198;2023-03-23T04:57:30;42.75;;;20.85;;
37205;SDS011;23099;42.636;23.198;2023-03-23T04:59:58;68.22;;;25.27;;
37205;SDS011;23099;42.636;23.198;2023-03-23T05:02:26;43.45;;;18.27;;
37205;SDS011;23099;42.636;23.198;2023-03-23T05:04:55;48.40;;;19.50;;
37205;SDS011;23099;42.636;23.198;2023-03-23T05:07:22;60.55;;;23.48;;
37205;SDS011;23099;42.636;23.198;2023-03-23T05:09:49;88.38;;;30.67;;
37205;SDS011;23099;42.636;23.198;2023-03-23T05:12:16;70.22;;;28.30;;
37205;SDS011;23099;42.636;23.198;2023-03-23T05:14:42;59.10;;;24.70;;
37205;SDS011;23099;42.636;23.198;2023-03-23T05:17:09;59.30;;;23.48;;
37205;SDS011;23099;42.636;23.198;2023-03-23T05:19:39;63.65;;;32.38;;
37205;SDS011;23099;42.636;23.198;2023-03-23T05:22:08;38.13;;;19.80;;
37205;SDS011;23099;42.636;23.198;2023-03-23T05:24:37;44.88;;;22.33;;
37205;SDS011;23099;42.636;23.198;2023-03-23T05:27:04;46.72;;;24.33;;
37205;SDS011;23099;42.636;23.198;2023-03-23T05:29:32;43.88;;;23.23;;
37205;SDS011;23099;42.636;23.198;2023-03-23T05:32:00;51.17;;;24.17;;
37205;SDS011;23099;42.636;23.198;2023-03-23T05:34:27;206.07;;;26.60;;
37205;SDS011;23099;42.636;23.198;2023-03-23T05:36:58;45.10;;;21.50;;
37205;SDS011;23099;42.636;23.198;2023-03-23T05:41:52;48.90;;;19.97;;
37205;SDS011;23099;42.636;23.198;2023-03-23T05:44:19;55.40;;;20.73;;
37205;SDS011;23099;42.636;23.198;2023-03-23T05:46:46;193.40;;;24.27;;
37205;SDS011;23099;42.636;23.198;2023-03-23T05:49:13;440.60;;;30.38;;
37205;SDS011;23099;42.636;23.198;2023-03-23T05:51:41;494.25;;;41.25;;
37205;SDS011;23099;42.636;23.198;2023-03-23T05:54:09;270.57;;;35.37;;
37205;SDS011;23099;42.636;23.198;2023-03-23T05:56:36;386.73;;;36.33;;
37205;SDS011;23099;42.636;23.198;2023-03-23T05:59:03;410.03;;;33.60;;
37205;SDS011;23099;42.636;23.198;2023-03-23T06:01:29;193.87;;;26.33;;
37205;SDS011;23099;42.636;23.198;2023-03-23T06:03:56;171.20;;;22.77;;
37205;SDS011;23099;42.636;23.198;2023-03-23T06:06:23;179.75;;;19.73;;
37205;SDS011;23099;42.636;23.198;2023-03-23T06:08:51;216.97;;;21.67;;
37205;SDS011;23099;42.636;23.198;2023-03-23T06:11:19;241.30;;;25.33;;
37205;SDS011;23099;42.636;23.198;2023-03-23T06:13:46;185.18;;;28.85;;
37205;SDS011;23099;42.636;23.198;2023-03-23T06:16:13;198.00;;;32.97;;
37205;SDS011;23099;42.636;23.198;2023-03-23T06:18:40;185.27;;;31.00;;
37205;SDS011;23099;42.636;23.198;2023-03-23T06:21:08;138.77;;;28.90;;
37205;SDS011;23099;42.636;23.198;2023-03-23T06:23:34;202.53;;;28.43;;
37205;SDS011;23099;42.636;23.198;2023-03-23T06:26:03;232.73;;;30.53;;
37205;SDS011;23099;42.636;23.198;2023-03-23T06:28:33;359.42;;;32.20;;
37205;SDS011;23099;42.636;23.198;2023-03-23T06:31:00;358.37;;;29.70;;
37205;SDS011;23099;42.636;23.198;2023-03-23T06:33:28;216.50;;;28.73;;
37205;SDS011;23099;42.636;23.198;2023-03-23T06:35:55;267.67;;;31.75;;
37205;SDS011;23099;42.636;23.198;2023-03-23T06:38:22;73.90;;;30.50;;
37205;SDS011;23099;42.636;23.198;2023-03-23T06:40:51;107.20;;;27.35;;
37205;SDS011;23099;42.636;23.198;2023-03-23T06:43:18;137.02;;;26.33;;
37205;SDS011;23099;42.636;23.198;2023-03-23T06:45:46;67.43;;;26.30;;
37205;SDS011;23099;42.636;23.198;2023-03-23T06:48:13;72.13;;;29.77;;
37205;SDS011;23099;42.636;23.198;2023-03-23T06:50:42;71.10;;;31.65;;
37205;SDS011;23099;42.636;23.198;2023-03-23T06:53:08;62.25;;;28.35;;
37205;SDS011;23099;42.636;23.198;2023-03-23T06:55:35;51.15;;;24.00;;
37205;SDS011;23099;42.636;23.198;2023-03-23T06:58:03;50.95;;;25.67;;
37205;SDS011;23099;42.636;23.198;2023-03-23T07:00:30;41.28;;;21.55;;
37205;SDS011;23099;42.636;23.198;2023-03-23T07:02:59;44.25;;;22.20;;
37205;SDS011;23099;42.636;23.198;2023-03-23T07:07:52;45.45;;;21.95;;
37205;SDS011;23099;42.636;23.198;2023-03-23T07:10:19;39.00;;;20.80;;
37205;SDS011;23099;42.636;23.198;2023-03-23T07:12:46;35.47;;;19.42;;
37205;SDS011;23099;42.636;23.198;2023-03-23T07:15:13;35.42;;;18.88;;
37205;SDS011;23099;42.636;23.198;2023-03-23T07:17:40;32.40;;;19.17;;
37205;SDS011;23099;42.636;23.198;2023-03-23T07:20:09;38.67;;;19.98;;
37205;SDS011;23099;42.636;23.198;2023-03-23T07:22:36;30.58;;;17.48;;
37205;SDS011;23099;42.636;23.198;2023-03-23T07:25:03;29.90;;;16.67;;
37205;SDS011;23099;42.636;23.198;2023-03-23T07:27:30;29.15;;;16.67;;
37205;SDS011;23099;42.636;23.198;2023-03-23T07:29:57;26.95;;;15.85;;
37205;SDS011;23099;42.636;23.198;2023-03-23T07:32:24;28.13;;;15.95;;
37205;SDS011;23099;42.636;23.198;2023-03-23T07:34:50;30.42;;;16.92;;
37205;SDS011;23099;42.636;23.198;2023-03-23T07:37:18;30.05;;;16.85;;
37205;SDS011;23099;42.636;23.198;2023-03-23T07:39:45;30.00;;;16.75;;
37205;SDS011;23099;42.636;23.198;2023-03-23T07:42:12;30.02;;;17.25;;
37205;SDS011;23099;42.636;23.198;2023-03-23T07:44:38;28.95;;;17.08;;
37205;SDS011;23099;42.636;23.198;2023-03-23T07:47:05;26.70;;;16.00;;
37205;SDS011;23099;42.636;23.198;2023-03-23T07:49:32;28.40;;;15.85;;
37205;SDS011;23099;42.636;23.198;2023-03-23T07:51:59;26.10;;;16.08;;
37205;SDS011;23099;42.636;23.198;2023-03-23T07:54:29;23.65;;;14.98;;
37205;SDS011;23099;42.636;23.198;2023-03-23T07:56:56;25.38;;;14.95;;
37205;SDS011;23099;42.636;23.198;2023-03-23T07:59:22;24.40;;;14.60;;
37205;SDS011;23099;42.636;23.198;2023-03-23T08:01:49;27.67;;;16.77;;
37205;SDS011;23099;42.636;23.198;2023-03-23T08:04:16;28.38;;;17.05;;
37205;SDS011;23099;42.636;23.198;2023-03-23T08:06:42;29.60;;;15.73;;
37205;SDS011;23099;42.636;23.198;2023-03-23T08:09:09;29.20;;;16.02;;
37205;SDS011;23099;42.636;23.198;2023-03-23T08:11:38;26.75;;;16.08;;
37205;SDS011;23099;42.636;23.198;2023-03-23T08:14:05;29.65;;;16.58;;
37205;SDS011;23099;42.636;23.198;2023-03-23T08:16:32;28.42;;;16.55;;
37205;SDS011;23099;42.636;23.198;2023-03-23T08:18:59;27.30;;;16.20;;
37205;SDS011;23099;42.636;23.198;2023-03-23T08:21:25;28.02;;;17.13;;
37205;SDS011;23099;42.636;23.198;2023-03-23T08:23:52;29.65;;;17.05;;
37205;SDS011;23099;42.636;23.198;2023-03-23T08:26:19;32.05;;;18.38;;
37205;SDS011;23099;42.636;23.198;2023-03-23T08:28:48;29.63;;;19.92;;
37205;SDS011;23099;42.636;23.198;2023-03-23T08:31:15;28.10;;;18.52;;
37205;SDS011;23099;42.636;23.198;2023-03-23T08:33:42;26.30;;;16.63;;
37205;SDS011;23099;42.636;23.198;2023-03-23T08:36:08;31.92;;;18.88;;
37205;SDS011;23099;42.636;23.198;2023-03-23T08:38:35;27.40;;;16.05;;
37205;SDS011;23099;42.636;23.198;2023-03-23T08:41:03;18.42;;;11.52;;
37205;SDS011;23099;42.636;23.198;2023-03-23T08:45:59;19.60;;;11.68;;
37205;SDS011;23099;42.636;23.198;2023-03-23T08:48:26;15.90;;;9.80;;
37205;SDS011;23099;42.636;23.198;2023-03-23T08:50:53;15.40;;;9.27;;
37205;SDS011;23099;42.636;23.198;2023-03-23T08:53:20;16.42;;;9.48;;
37205;SDS011;23099;42.636;23.198;2023-03-23T08:55:46;17.42;;;8.48;;
37205;SDS011;23099;42.636;23.198;2023-03-23T08:58:14;14.73;;;8.07;;
37205;SDS011;23099;42.636;23.198;2023-03-23T09:00:40;13.98;;;8.02;;
37205;SDS011;23099;42.636;23.198;2023-03-23T09:03:09;14.88;;;7.75;;
37205;SDS011;23099;42.636;23.198;2023-03-23T09:05:35;14.30;;;6.82;;
37205;SDS011;23099;42.636;23.198;2023-03-23T09:08:04;14.90;;;7.43;;
37205;SDS011;23099;42.636;23.198;2023-03-23T09:10:31;12.57;;;7.15;;
37205;SDS011;23099;42.636;23.198;2023-03-23T09:12:57;13.23;;;6.75;;
37205;SDS011;23099;42.636;23.198;2023-03-23T09:15:24;10.80;;;6.07;;
37205;SDS011;23099;42.636;23.198;2023-03-23T09:17:51;11.35;;;6.28;;
37205;SDS011;23099;42.636;23.198;2023-03-23T09:20:21;14.23;;;6.88;;
37205;SDS011;23099;42.636;23.198;2023-03-23T09:22:49;12.25;;;6.68;;
37205;SDS011;23099;42.636;23.198;2023-03-23T09:27:46;13.02;;;7.75;;
37205;SDS011;23099;42.636;23.198;2023-03-23T09:30:18;16.00;;;8.02;;
37205;SDS011;23099;42.636;23.198;2023-03-23T09:32:45;14.98;;;7.78;;
37205;SDS011;23099;42.636;23.198;2023-03-23T09:35:13;14.55;;;6.55;;
37205;SDS011;23099;42.636;23.198;2023-03-23T09:37:42;13.20;;;6.95;;
37205;SDS011;23099;42.636;23.198;2023-03-23T09:40:13;14.23;;;7.03;;
37205;SDS011;23099;42.636;23.198;2023-03-23T09:42:47;11.43;;;6.97;;
37205;SDS011;23099;42.636;23.198;2023-03-23T09:45:24;12.50;;;6.85;;
37205;SDS011;23099;42.636;23.198;2023-03-23T09:48:01;12.23;;;6.47;;
37205;SDS011;23099;42.636;23.198;2023-03-23T09:50:39;12.77;;;6.50;;
37205;SDS011;23099;42.636;23.198;2023-03-23T09:53:12;12.35;;;6.60;;
37205;SDS011;23099;42.636;23.198;2023-03-23T09:55:43;13.23;;;6.90;;
37205;SDS011;23099;42.636;23.198;2023-03-23T09:58:14;11.50;;;6.85;;
37205;SDS011;23099;42.636;23.198;2023-03-23T10:00:50;12.18;;;6.72;;
37205;SDS011;23099;42.636;23.198;2023-03-23T10:03:21;12.30;;;6.57;;
37205;SDS011;23099;42.636;23.198;2023-03-23T10:05:53;11.77;;;5.85;;
37205;SDS011;23099;42.636;23.198;2023-03-23T10:08:22;11.52;;;6.00;;
37205;SDS011;23099;42.636;23.198;2023-03-23T10:10:56;10.05;;;5.75;;
37205;SDS011;23099;42.636;23.198;2023-03-23T10:13:30;10.27;;;5.50;;
37205;SDS011;23099;42.636;23.198;2023-03-23T10:16:08;14.98;;;6.78;;
37205;SDS011;23099;42.636;23.198;2023-03-23T10:18:38;14.15;;;8.70;;
37205;SDS011;23099;42.636;23.198;2023-03-23T10:21:11;14.05;;;7.53;;
37205;SDS011;23099;42.636;23.198;2023-03-23T10:23:50;13.90;;;6.57;;
37205;SDS011;23099;42.636;23.198;2023-03-23T10:26:28;12.40;;;7.40;;
37205;SDS011;23099;42.636;23.198;2023-03-23T10:29:04;11.93;;;6.95;;
37205;SDS011;23099;42.636;23.198;2023-03-23T10:31:38;17.38;;;7.93;;
37205;SDS011;23099;42.636;23.198;2023-03-23T10:34:10;17.85;;;8.68;;
37205;SDS011;23099;42.636;23.198;2023-03-23T10:36:48;13.18;;;7.60;;
37205;SDS011;23099;42.636;23.198;2023-03-23T10:39:22;12.98;;;6.72;;
37205;SDS011;23099;42.636;23.198;2023-03-23T10:41:50;16.33;;;7.97;;
37205;SDS011;23099;42.636;23.198;2023-03-23T10:44:18;13.00;;;6.65;;
37205;SDS011;23099;42.636;23.198;2023-03-23T10:46:48;61.08;;;35.65;;
37205;SDS011;23099;42.636;23.198;2023-03-23T10:49:23;18.63;;;11.13;;
37205;SDS011;23099;42.636;23.198;2023-03-23T10:51:53;14.57;;;8.63;;
37205;SDS011;23099;42.636;23.198;2023-03-23T10:54:32;25.30;;;16.10;;
37205;SDS011;23099;42.636;23.198;2023-03-23T10:57:12;20.83;;;12.38;;
37205;SDS011;23099;42.636;23.198;2023-03-23T10:59:40;34.28;;;19.83;;
37205;SDS011;23099;42.636;23.198;2023-03-23T11:02:10;23.25;;;13.52;;
37205;SDS011;23099;42.636;23.198;2023-03-23T11:04:44;29.58;;;16.88;;
37205;SDS011;23099;42.636;23.198;2023-03-23T11:07:16;28.48;;;15.23;;
37205;SDS011;23099;42.636;23.198;2023-03-23T11:09:53;11.83;;;6.73;;
37205;SDS011;23099;42.636;23.198;2023-03-23T11:12:21;12.88;;;6.68;;
37205;SDS011;23099;42.636;23.198;2023-03-23T11:14:48;13.27;;;6.75;;
37205;SDS011;23099;42.636;23.198;2023-03-23T11:17:20;12.30;;;6.55;;
37205;SDS011;23099;42.636;23.198;2023-03-23T11:19:49;10.98;;;6.35;;
37205;SDS011;23099;42.636;23.198;2023-03-23T11:22:20;11.02;;;6.13;;
37205;SDS011;23099;42.636;23.198;2023-03-23T11:24:54;11.38;;;5.70;;
37205;SDS011;23099;42.636;23.198;2023-03-23T11:27:22;9.30;;;5.45;;
37205;SDS011;23099;42.636;23.198;2023-03-23T11:29:51;10.43;;;5.70;;
37205;SDS011;23099;42.636;23.198;2023-03-23T11:32:22;10.02;;;5.78;;
37205;SDS011;23099;42.636;23.198;2023-03-23T11:34:53;10.23;;;6.05;;
37205;SDS011;23099;42.636;23.198;2023-03-23T11:37:24;12.70;;;6.43;;
37205;SDS011;23099;42.636;23.198;2023-03-23T11:39:57;11.02;;;5.63;;
37205;SDS011;23099;42.636;23.198;2023-03-23T11:42:26;10.73;;;5.88;;
37205;SDS011;23099;42.636;23.198;2023-03-23T11:45:12;10.18;;;5.40;;
37205;SDS011;23099;42.636;23.198;2023-03-23T11:47:44;10.55;;;5.78;;
37205;SDS011;23099;42.636;23.198;2023-03-23T11:50:17;9.82;;;5.22;;
37205;SDS011;23099;42.636;23.198;2023-03-23T11:52:48;15.80;;;8.48;;
37205;SDS011;23099;42.636;23.198;2023-03-23T11:55:21;9.38;;;5.80;;
37205;SDS011;23099;42.636;23.198;2023-03-23T11:57:52;10.82;;;5.82;;
37205;SDS011;23099;42.636;23.198;2023-03-23T12:00:22;9.73;;;5.45;;
37205;SDS011;23099;42.636;23.198;2023-03-23T12:02:51;10.40;;;5.53;;
37205;SDS011;23099;42.636;23.198;2023-03-23T12:05:43;9.98;;;5.78;;
37205;SDS011;23099;42.636;23.198;2023-03-23T12:08:22;9.25;;;5.10;;
37205;SDS011;23099;42.636;23.198;2023-03-23T12:11:12;11.32;;;5.95;;
37205;SDS011;23099;42.636;23.198;2023-03-23T12:13:50;10.02;;;5.72;;
37205;SDS011;23099;42.636;23.198;2023-03-23T12:16:30;10.57;;;5.38;;
37205;SDS011;23099;42.636;23.198;2023-03-23T12:19:09;9.85;;;5.45;;
37205;SDS011;23099;42.636;23.198;2023-03-23T12:21:46;9.23;;;5.07;;
37205;SDS011;23099;42.636;23.198;2023-03-23T12:24:27;11.02;;;4.90;;
37205;SDS011;23099;42.636;23.198;2023-03-23T12:27:07;9.38;;;4.80;;
37205;SDS011;23099;42.636;23.198;2023-03-23T12:29:45;9.23;;;5.15;;
37205;SDS011;23099;42.636;23.198;2023-03-23T12:32:22;8.65;;;4.88;;
37205;SDS011;23099;42.636;23.198;2023-03-23T12:34:59;10.65;;;5.20;;
37205;SDS011;23099;42.636;23.198;2023-03-23T12:37:38;9.65;;;5.40;;
37205;SDS011;23099;42.636;23.198;2023-03-23T12:43:08;7.80;;;4.30;;
37205;SDS011;23099;42.636;23.198;2023-03-23T12:48:48;9.25;;;4.32;;
37205;SDS011;23099;42.636;23.198;2023-03-23T12:51:21;9.88;;;5.00;;
37205;SDS011;23099;42.636;23.198;2023-03-23T12:53:55;9.50;;;5.75;;
37205;SDS011;23099;42.636;23.198;2023-03-23T12:56:26;8.48;;;5.15;;
37205;SDS011;23099;42.636;23.198;2023-03-23T12:59:02;9.90;;;4.85;;
37205;SDS011;23099;42.636;23.198;2023-03-23T13:01:37;8.68;;;4.47;;
37205;SDS011;23099;42.636;23.198;2023-03-23T13:04:09;8.70;;;4.10;;
37205;SDS011;23099;42.636;23.198;2023-03-23T13:06:40;8.27;;;4.38;;
37205;SDS011;23099;42.636;23.198;2023-03-23T13:09:10;8.38;;;4.53;;
37205;SDS011;23099;42.636;23.198;2023-03-23T13:11:41;13.68;;;4.70;;
37205;SDS011;23099;42.636;23.198;2023-03-23T13:14:16;7.82;;;4.10;;
37205;SDS011;23099;42.636;23.198;2023-03-23T13:16:54;8.38;;;4.03;;
37205;SDS011;23099;42.636;23.198;2023-03-23T13:19:30;7.55;;;3.67;;
37205;SDS011;23099;42.636;23.198;2023-03-23T13:22:04;8.60;;;4.40;;
37205;SDS011;23099;42.636;23.198;2023-03-23T13:24:34;9.15;;;4.97;;
37205;SDS011;23099;42.636;23.198;2023-03-23T13:27:04;8.80;;;4.97;;
37205;SDS011;23099;42.636;23.198;2023-03-23T13:29:43;7.50;;;4.22;;
37205;SDS011;23099;42.636;23.198;2023-03-23T13:32:11;10.13;;;4.88;;
37205;SDS011;23099;42.636;23.198;2023-03-23T13:34:41;7.57;;;4.45;;
37205;SDS011;23099;42.636;23.198;2023-03-23T13:37:10;9.25;;;4.07;;
37205;SDS011;23099;42.636;23.198;2023-03-23T13:39:49;7.63;;;4.22;;
37205;SDS011;23099;42.636;23.198;2023-03-23T13:42:21;7.78;;;4.47;;
37205;SDS011;23099;42.636;23.198;2023-03-23T13:45:05;6.85;;;4.00;;
37205;SDS011;23099;42.636;23.198;2023-03-23T13:47:36;8.65;;;4.68;;
37205;SDS011;23099;42.636;23.198;2023-03-23T13:50:09;7.30;;;3.80;;
37205;SDS011;23099;42.636;23.198;2023-03-23T13:52:46;8.85;;;4.50;;
37205;SDS011;23099;42.636;23.198;2023-03-23T13:58:12;7.60;;;4.10;;
37205;SDS011;23099;42.636;23.198;2023-03-23T14:01:00;7.53;;;3.50;;
37205;SDS011;23099;42.636;23.198;2023-03-23T14:03:36;8.07;;;3.30;;
37205;SDS011;23099;42.636;23.198;2023-03-23T14:06:06;6.38;;;2.90;;
37205;SDS011;23099;42.636;23.198;2023-03-23T14:08:38;7.22;;;3.40;;
37205;SDS011;23099;42.636;23.198;2023-03-23T14:11:14;7.53;;;3.65;;
37205;SDS011;23099;42.636;23.198;2023-03-23T14:13:45;6.53;;;3.58;;
37205;SDS011;23099;42.636;23.198;2023-03-23T14:16:19;7.25;;;3.90;;
37205;SDS011;23099;42.636;23.198;2023-03-23T14:18:49;7.28;;;3.67;;
37205;SDS011;23099;42.636;23.198;2023-03-23T14:21:21;8.05;;;3.85;;
37205;SDS011;23099;42.636;23.198;2023-03-23T14:23:51;8.10;;;3.80;;
37205;SDS011;23099;42.636;23.198;2023-03-23T14:26:20;6.80;;;3.60;;
37205;SDS011;23099;42.636;23.198;2023-03-23T14:28:49;8.23;;;4.18;;
37205;SDS011;23099;42.636;23.198;2023-03-23T14:31:20;6.60;;;3.47;;
37205;SDS011;23099;42.636;23.198;2023-03-23T14:33:48;9.13;;;4.60;;
37205;SDS011;23099;42.636;23.198;2023-03-23T14:36:19;9.23;;;4.35;;
37205;SDS011;23099;42.636;23.198;2023-03-23T14:38:48;7.75;;;3.63;;
37205;SDS011;23099;42.636;23.198;2023-03-23T14:41:21;10.07;;;4.07;;
37205;SDS011;23099;42.636;23.198;2023-03-23T14:43:49;8.70;;;4.10;;
37205;SDS011;23099;42.636;23.198;2023-03-23T14:46:16;8.20;;;3.80;;
37205;SDS011;23099;42.636;23.198;2023-03-23T14:48:45;7.35;;;3.15;;
37205;SDS011;23099;42.636;23.198;2023-03-23T14:51:16;6.95;;;3.67;;
37205;SDS011;23099;42.636;23.198;2023-03-23T14:53:45;6.60;;;3.55;;
37205;SDS011;23099;42.636;23.198;2023-03-23T14:56:13;7.55;;;3.45;;
37205;SDS011;23099;42.636;23.198;2023-03-23T15:01:10;8.18;;;3.80;;
37205;SDS011;23099;42.636;23.198;2023-03-23T15:03:40;8.75;;;3.47;;
37205;SDS011;23099;42.636;23.198;2023-03-23T15:06:13;8.68;;;3.85;;
37205;SDS011;23099;42.636;23.198;2023-03-23T15:08:42;8.57;;;3.42;;
37205;SDS011;23099;42.636;23.198;2023-03-23T15:11:12;9.02;;;3.78;;